Time;durP1;ratioP1;P1;durP2;ratioP2;P2;SDS_P1;SDS_P2;PMS_P1;PMS_P2;Temp;Humidity;BMP_temperature;BMP_pressure;BME280_temperature;BME280_humidity;BME280_pressure;Samples;Min_cycle;Max_cycle;Signal;HPM_P1;HPM_P2
2021/01/06 00:00:53;;;;;;;57.15;24.18;;;;;;;-0.51;85.87;100994.17;1735925;82;20928;-35
2021/01/06 00:03:23;;;;;;;60.73;24.45;;;;;;;-0.48;85.80;100986.67;1735925;82;21349;-37
2021/01/06 00:05:53;;;;;;;57.65;24.52;;;;;;;-0.50;85.84;100979.79;1735905;82;20983;-36
2021/01/06 00:08:22;;;;;;;53.75;25.12;;;;;;;-0.46;85.95;100984.17;1735890;82;21004;-35
2021/01/06 00:10:51;;;;;;;49.58;22.65;;;;;;;-0.47;85.77;100983.71;1735807;82;20936;-36
2021/01/06 00:13:19;;;;;;;54.83;23.87;;;;;;;-0.51;85.96;100990.78;1735934;82;21332;-36
2021/01/06 00:15:47;;;;;;;57.20;24.92;;;;;;;-0.49;86.05;101001.48;1735905;82;21211;-36
2021/01/06 00:18:16;;;;;;;49.15;22.62;;;;;;;-0.46;86.04;100993.07;1735812;82;21063;-36
2021/01/06 00:20:44;;;;;;;56.33;23.42;;;;;;;-0.50;86.08;100995.05;1735836;82;21440;-35
2021/01/06 00:23:12;;;;;;;60.00;23.70;;;;;;;-0.48;86.08;100994.70;1735888;82;20980;-37
2021/01/06 00:25:43;;;;;;;44.55;21.93;;;;;;;-0.48;86.13;100998.12;1735827;82;20991;-35
2021/01/06 00:28:13;;;;;;;49.27;22.48;;;;;;;-0.46;86.17;101000.70;1735949;82;21530;-38
2021/01/06 00:30:47;;;;;;;49.20;24.63;;;;;;;-0.46;86.19;101009.61;1735790;82;20980;-37
2021/01/06 00:33:25;;;;;;;47.40;24.27;;;;;;;-0.42;86.05;100993.64;1735803;81;21031;-37
2021/01/06 00:35:56;;;;;;;49.93;23.40;;;;;;;-0.42;86.06;100993.64;1717690;81;21019;-37
2021/01/06 00:38:26;;;;;;;52.08;23.55;;;;;;;-0.42;86.06;100986.00;1706512;84;20944;-35
2021/01/06 00:40:54;;;;;;;52.98;24.35;;;;;;;-0.42;86.13;100994.91;1706452;84;21206;-36
2021/01/06 00:43:23;;;;;;;52.05;24.15;;;;;;;-0.42;86.08;101004.23;1706464;84;21086;-37
2021/01/06 00:45:51;;;;;;;45.05;21.85;;;;;;;-0.41;86.16;101014.45;1706487;84;20976;-36
2021/01/06 00:48:20;;;;;;;44.65;22.10;;;;;;;-0.41;86.20;101019.53;1706412;84;21502;-36
2021/01/06 00:50:51;;;;;;;56.37;23.95;;;;;;;-0.42;86.29;101027.13;1714188;83;21002;-37
2021/01/06 00:53:25;;;;;;;52.93;23.87;;;;;;;-0.39;86.26;101025.55;1720048;83;21444;-35
2021/01/06 00:55:55;;;;;;;48.70;23.77;;;;;;;-0.41;86.27;101013.17;1720026;83;20896;-36
2021/01/06 00:58:23;;;;;;;54.18;23.15;;;;;;;-0.39;86.29;101020.88;1720044;83;21561;-37
2021/01/06 01:00:53;;;;;;;47.65;22.67;;;;;;;-0.37;86.19;101022.67;1719991;83;20943;-36
2021/01/06 01:03:24;;;;;;;57.75;25.52;;;;;;;-0.38;86.15;101012.04;1720148;83;20932;-36
2021/01/06 01:05:53;;;;;;;47.13;23.15;;;;;;;-0.33;86.09;101007.09;1720044;83;21390;-36
2021/01/06 01:08:22;;;;;;;51.30;22.73;;;;;;;-0.37;86.09;101009.95;1719942;83;21011;-37
2021/01/06 01:10:52;;;;;;;50.17;22.45;;;;;;;-0.38;86.12;101015.86;1719984;83;20943;-37
2021/01/06 01:13:25;;;;;;;52.67;24.32;;;;;;;-0.35;86.14;101023.59;1694320;83;21027;-36
2021/01/06 01:15:57;;;;;;;59.35;24.77;;;;;;;-0.35;86.11;101022.71;1720112;83;21513;-37
2021/01/06 01:18:28;;;;;;;57.73;24.40;;;;;;;-0.33;86.07;101027.45;1719940;83;21204;-38
2021/01/06 01:20:58;;;;;;;47.62;22.98;;;;;;;-0.32;86.05;101026.24;1719949;83;21046;-37
2021/01/06 01:23:28;;;;;;;53.55;23.90;;;;;;;-0.34;86.12;101029.14;1720091;83;21478;-36
2021/01/06 01:25:59;;;;;;;54.15;24.05;;;;;;;-0.33;86.10;101026.17;1719936;83;21434;-37
2021/01/06 01:28:27;;;;;;;48.95;22.82;;;;;;;-0.30;86.02;101020.80;1719962;83;21026;-38
2021/01/06 01:30:55;;;;;;;51.58;22.70;;;;;;;-0.32;86.09;101017.34;1720000;83;21146;-36
2021/01/06 01:33:25;;;;;;;56.83;26.12;;;;;;;-0.31;86.12;101015.25;1719951;83;20979;-36
2021/01/06 01:35:55;;;;;;;46.75;23.57;;;;;;;-0.25;85.83;101001.00;1719780;83;20935;-36
2021/01/06 01:38:26;;;;;;;47.75;23.87;;;;;;;-0.30;85.94;101002.98;1719984;83;20947;-38
2021/01/06 01:41:12;;;;;;;53.20;24.20;;;;;;;-0.28;86.02;101003.45;1720106;83;21057;-37
2021/01/06 01:43:40;;;;;;;51.57;24.90;;;;;;;-0.30;86.08;101000.44;1720196;83;21205;-36
2021/01/06 01:46:30;;;;;;;47.25;24.10;;;;;;;-0.25;85.95;100997.19;1720038;83;21781;-34
2021/01/06 01:48:58;;;;;;;53.25;24.25;;;;;;;-0.30;85.98;100987.72;1719955;83;20990;-37
2021/01/06 01:51:33;;;;;;;50.15;24.72;;;;;;;-0.31;86.07;100982.17;1719983;83;20924;-36
2021/01/06 01:54:05;;;;;;;58.70;25.70;;;;;;;-0.27;86.08;100988.64;1719932;83;20979;-37
2021/01/06 01:56:43;;;;;;;48.48;23.73;;;;;;;-0.27;86.04;100979.73;1720014;83;21381;-35
2021/01/06 01:59:32;;;;;;;52.13;23.92;;;;;;;-0.30;86.07;100986.45;1719856;83;21003;-37
2021/01/06 02:02:04;;;;;;;54.42;25.77;;;;;;;-0.31;86.18;100982.17;1719947;83;21628;-36
2021/01/06 02:06:54;;;;;;;52.85;26.02;;;;;;;-0.28;86.25;100978.00;1813026;79;22137;-35
2021/01/06 02:09:37;;;;;;;47.38;24.52;;;;;;;-0.30;86.25;100980.48;1692513;83;20928;-35
2021/01/06 02:12:13;;;;;;;54.77;23.38;;;;;;;-0.27;86.30;100975.48;1690641;83;22769;-35
2021/01/06 02:15:02;;;;;;;62.27;26.00;;;;;;;-0.27;86.38;100980.58;1708582;83;21004;-35
2021/01/06 02:17:30;;;;;;;53.48;23.05;;;;;;;-0.25;86.22;100979.37;1706360;84;21040;-35
2021/01/06 02:19:59;;;;;;;59.60;25.15;;;;;;;-0.30;86.29;100986.45;1775316;80;21031;-35
2021/01/06 02:22:27;;;;;;;61.40;25.48;;;;;;;-0.28;86.32;100989.02;1708263;84;21026;-35
2021/01/06 02:24:55;;;;;;;53.23;25.08;;;;;;;-0.28;86.27;100985.63;1754148;80;21368;-34
2021/01/06 02:27:23;;;;;;;56.33;24.60;;;;;;;-0.28;86.22;100985.63;1708652;84;20895;-36
2021/01/06 02:29:51;;;;;;;53.02;22.87;;;;;;;-0.28;86.22;100981.39;1775380;80;20975;-35
2021/01/06 02:32:21;;;;;;;63.55;24.70;;;;;;;-0.30;86.29;100981.36;1775413;80;20920;-34
2021/01/06 02:34:49;;;;;;;51.85;24.70;;;;;;;-0.28;86.31;100978.84;1708666;84;20998;-34
2021/01/06 02:37:20;;;;;;;53.63;25.05;;;;;;;-0.31;86.38;100978.36;1775517;80;21445;-35
2021/01/06 02:39:50;;;;;;;54.60;24.63;;;;;;;-0.28;86.32;100967.39;1708002;84;21002;-34
2021/01/06 02:42:19;;;;;;;53.98;23.65;;;;;;;-0.27;86.38;100979.73;1775511;80;21058;-35
2021/01/06 02:44:47;;;;;;;52.30;23.62;;;;;;;-0.28;86.47;100984.36;1708535;84;20983;-36
2021/01/06 02:47:15;;;;;;;47.73;21.70;;;;;;;-0.31;86.56;100972.00;1771825;80;21047;-35
2021/01/06 02:49:44;;;;;;;44.10;20.43;;;;;;;-0.30;86.58;100972.45;1708000;84;21272;-35
2021/01/06 02:52:37;;;;;;;49.55;22.87;;;;;;;-0.28;86.58;100960.19;1775368;80;21433;-36
2021/01/06 02:55:07;;;;;;;41.48;21.15;;;;;;;-0.30;86.66;100962.27;1708732;83;21017;-35
2021/01/06 02:57:35;;;;;;;45.43;21.33;;;;;;;-0.30;86.63;100962.27;1775515;80;21415;-34
2021/01/06 03:00:06;;;;;;;51.30;22.80;;;;;;;-0.30;86.73;100957.19;1708695;84;21049;-36
2021/01/06 03:02:34;;;;;;;47.50;21.48;;;;;;;-0.24;86.74;100960.74;1775792;80;21375;-36
2021/01/06 03:05:19;;;;;;;49.77;23.35;;;;;;;-0.29;86.73;100961.85;1708423;84;21533;-35
2021/01/06 03:07:48;;;;;;;63.07;23.27;;;;;;;-0.25;86.69;100952.66;1775684;80;21006;-36
2021/01/06 03:10:17;;;;;;;48.25;21.87;;;;;;;-0.28;86.79;100962.73;1708695;84;21755;-35
2021/01/06 03:12:47;;;;;;;46.08;21.62;;;;;;;-0.31;86.88;100988.53;1775495;80;21028;-37
2021/01/06 03:15:17;;;;;;;42.98;20.30;;;;;;;-0.30;86.95;100998.29;1708702;84;21274;-35
2021/01/06 03:17:45;;;;;;;46.73;21.07;;;;;;;-0.30;87.02;100994.08;1775250;80;21043;-37
2021/01/06 03:20:18;;;;;;;48.95;22.32;;;;;;;-0.26;87.02;100996.73;1774858;80;20916;-35
2021/01/06 03:22:49;;;;;;;53.02;23.15;;;;;;;-0.23;87.05;100990.47;1707877;83;20978;-35
2021/01/06 03:25:18;;;;;;;50.33;23.60;;;;;;;-0.23;87.10;100995.55;1775344;80;20964;-35
2021/01/06 03:27:48;;;;;;;54.15;25.88;;;;;;;-0.23;87.15;100990.47;1708172;84;21438;-36
2021/01/06 03:30:21;;;;;;;56.18;22.77;;;;;;;-0.19;87.19;100978.30;1753637;80;21038;-34
2021/01/06 03:33:04;;;;;;;46.75;22.73;;;;;;;-0.22;87.24;100987.11;1708129;83;21596;-36
2021/01/06 03:35:55;;;;;;;54.60;23.62;;;;;;;-0.26;87.41;100987.82;1775050;80;20935;-34
2021/01/06 03:38:35;;;;;;;57.10;24.12;;;;;;;-0.26;87.53;100991.64;1689928;84;20927;-35
2021/01/06 03:41:05;;;;;;;62.45;25.75;;;;;;;-0.29;87.62;101001.30;1762856;80;21339;-36
2021/01/06 03:43:36;;;;;;;58.20;25.37;;;;;;;-0.27;87.67;101005.17;1688513;84;21604;-34
2021/01/06 03:46:15;;;;;;;62.40;25.12;;;;;;;-0.26;87.72;101005.21;1774935;80;20924;-35
2021/01/06 03:49:06;;;;;;;59.45;27.17;;;;;;;-0.25;87.83;101002.28;1774682;80;20939;-34
2021/01/06 03:52:02;;;;;;;71.75;28.30;;;;;;;-0.26;87.90;101000.55;1774826;80;20916;-36
2021/01/06 03:54:48;;;;;;;68.87;26.67;;;;;;;-0.24;87.93;100997.64;1708276;84;21207;-36
2021/01/06 03:57:16;;;;;;;66.62;26.00;;;;;;;-0.26;88.03;101000.13;1774885;80;21050;-35
2021/01/06 03:59:47;;;;;;;62.23;27.15;;;;;;;-0.28;88.12;100994.54;1707580;83;20926;-35
2021/01/06 04:02:31;;;;;;;68.52;27.40;;;;;;;-0.26;88.11;101000.13;1774880;80;21501;-36
2021/01/06 04:05:10;;;;;;;64.95;27.95;;;;;;;-0.24;88.12;101009.09;1707978;84;21046;-35
2021/01/06 04:07:52;;;;;;;56.25;26.10;;;;;;;-0.21;88.10;101004.11;1774979;80;21384;-35
2021/01/06 04:10:34;;;;;;;63.55;25.72;;;;;;;-0.22;88.13;100996.90;1708009;84;21512;-34
2021/01/06 04:13:02;;;;;;;71.82;26.55;;;;;;;-0.21;88.20;101006.66;1774960;80;20944;-36
2021/01/06 04:15:31;;;;;;;70.95;26.20;;;;;;;-0.23;88.21;100998.98;1708072;84;21002;-36
2021/01/06 04:17:59;;;;;;;57.00;25.85;;;;;;;-0.19;88.18;101010.11;1773130;80;21120;-35
2021/01/06 04:20:37;;;;;;;61.83;25.40;;;;;;;-0.19;88.22;101015.20;1701353;84;21383;-36
2021/01/06 04:23:09;;;;;;;75.80;29.37;;;;;;;-0.16;88.27;101017.45;1772463;80;21431;-35
2021/01/06 04:25:43;;;;;;;73.02;28.00;;;;;;;-0.13;88.35;101006.50;1707962;84;21160;-36
2021/01/06 04:28:21;;;;;;;76.50;28.95;;;;;;;-0.12;88.43;101010.80;1774881;80;21469;-37
2021/01/06 04:31:02;;;;;;;71.25;27.67;;;;;;;-0.11;88.49;101013.81;1708161;83;20983;-34
2021/01/06 04:33:35;;;;;;;65.15;26.80;;;;;;;-0.12;88.60;101009.92;1775046;80;21284;-37
2021/01/06 04:36:08;;;;;;;72.82;27.73;;;;;;;-0.11;88.63;101016.75;1707727;84;20931;-37
2021/01/06 04:38:39;;;;;;;67.15;26.27;;;;;;;-0.09;88.64;101020.20;1774680;80;20947;-34
2021/01/06 04:41:42;;;;;;;69.67;25.77;;;;;;;-0.08;88.67;101025.76;1708012;84;20938;-37
2021/01/06 04:44:45;;;;;;;67.25;26.85;;;;;;;-0.04;88.73;101023.77;1853606;77;22695;-37
2021/01/06 04:47:46;;;;;;;88.17;26.97;;;;;;;-0.11;88.82;101025.66;1825682;78;20966;-35
2021/01/06 04:50:51;;;;;;;70.00;26.40;;;;;;;-0.07;88.81;101015.64;1825492;78;21218;-35
2021/01/06 04:53:34;;;;;;;66.70;26.50;;;;;;;-0.15;88.97;101014.49;1789431;80;21047;-36
2021/01/06 04:56:25;;;;;;;66.65;26.45;;;;;;;-0.13;88.98;101021.77;1789241;80;20962;-35
2021/01/06 04:59:35;;;;;;;60.28;23.02;;;;;;;-0.18;89.08;101018.20;1789219;80;21003;-36
2021/01/06 05:02:22;;;;;;;61.42;24.05;;;;;;;-0.18;89.13;101025.84;1789101;80;20995;-36
2021/01/06 05:04:58;;;;;;;63.73;24.47;;;;;;;-0.18;89.26;101019.48;1789124;80;21362;-34
2021/01/06 05:07:55;;;;;;;62.35;24.20;;;;;;;-0.20;89.33;101021.11;1789216;80;21165;-35
2021/01/06 05:10:35;;;;;;;66.40;24.07;;;;;;;-0.19;89.38;101019.02;1789229;80;21043;-36
2021/01/06 05:13:21;;;;;;;63.20;25.50;;;;;;;-0.18;89.40;101013.12;1789178;80;20984;-37
2021/01/06 05:16:00;;;;;;;47.62;19.15;;;;;;;-0.14;89.50;101011.13;1789318;80;20933;-35
2021/01/06 05:18:28;;;;;;;70.95;26.35;;;;;;;-0.15;89.60;101019.58;1789275;80;21217;-36
2021/01/06 05:20:56;;;;;;;76.70;25.45;;;;;;;-0.15;89.72;101018.31;1789106;80;21075;-36
2021/01/06 05:23:29;;;;;;;69.12;24.63;;;;;;;-0.09;89.68;101021.09;1789214;80;20996;-35
2021/01/06 05:25:59;;;;;;;59.55;25.00;;;;;;;-0.13;89.77;101020.50;1789202;80;21008;-36
2021/01/06 05:28:27;;;;;;;74.72;27.13;;;;;;;-0.13;89.87;101018.38;1759097;80;20865;-36
2021/01/06 05:30:56;;;;;;;70.50;27.22;;;;;;;-0.13;89.94;101021.77;1789253;80;23597;-36
2021/01/06 05:33:38;;;;;;;67.03;25.97;;;;;;;-0.09;89.96;101018.55;1789204;80;20893;-35
2021/01/06 05:36:06;;;;;;;72.97;25.50;;;;;;;-0.11;90.08;101020.17;1789193;80;21309;-37
2021/01/06 05:38:35;;;;;;;76.57;27.87;;;;;;;-0.10;90.18;101024.45;1789202;80;20980;-35
2021/01/06 05:41:03;;;;;;;68.85;25.72;;;;;;;-0.02;90.27;101017.93;1789223;80;20996;-35
2021/01/06 05:43:39;;;;;;;74.58;26.52;;;;;;;-0.08;90.46;101020.28;1792726;80;22631;-37
2021/01/06 05:46:15;;;;;;;68.15;26.02;;;;;;;-0.06;90.49;101025.01;1795597;80;21039;-36
2021/01/06 05:49:24;;;;;;;74.45;28.52;;;;;;;-0.01;90.60;101017.51;1795587;80;20976;-36
2021/01/06 05:51:56;;;;;;;81.40;29.20;;;;;;;-0.05;90.76;101017.83;1795599;80;20996;-36
2021/01/06 05:54:51;;;;;;;76.92;26.55;;;;;;;-0.02;90.94;101015.39;1795449;80;20901;-36
2021/01/06 05:57:26;;;;;;;78.42;26.93;;;;;;;-0.01;91.10;101013.69;1795201;80;22761;-35
2021/01/06 06:00:25;;;;;;;80.55;28.57;;;;;;;0.01;91.35;101012.48;1768067;80;21423;-35
2021/01/06 06:03:26;;;;;;;73.50;27.65;;;;;;;0.00;91.59;101020.55;1794929;80;21020;-35
2021/01/06 06:06:25;;;;;;;84.42;30.50;;;;;;;0.03;91.66;101014.28;1794587;80;21043;-35
2021/01/06 06:09:07;;;;;;;83.05;28.23;;;;;;;0.07;91.77;101011.41;1794984;80;21474;-36
2021/01/06 06:12:24;;;;;;;75.65;27.10;;;;;;;0.07;91.89;101005.92;1795041;80;22620;-36
2021/01/06 06:15:48;;;;;;;81.35;27.35;;;;;;;0.05;91.99;101016.86;1795037;80;21055;-34
2021/01/06 06:18:47;;;;;;;85.55;29.37;;;;;;;0.07;92.10;101026.30;1795079;80;20960;-37
2021/01/06 06:21:25;;;;;;;83.75;28.40;;;;;;;0.11;92.13;101023.42;1794910;80;20945;-36
2021/01/06 06:24:22;;;;;;;80.95;29.72;;;;;;;0.13;92.26;101025.64;1794993;80;21321;-37
2021/01/06 06:27:29;;;;;;;85.95;28.02;;;;;;;0.14;92.27;101028.22;1794723;80;21965;-37
2021/01/06 06:30:17;;;;;;;72.90;28.02;;;;;;;0.14;92.41;101031.19;1794837;80;21495;-35
2021/01/06 06:32:48;;;;;;;75.08;27.67;;;;;;;0.20;92.50;101027.57;1795040;80;21055;-37
2021/01/06 06:35:23;;;;;;;75.20;27.90;;;;;;;0.19;92.61;101032.20;1794973;80;20925;-36
2021/01/06 06:37:55;;;;;;;71.00;26.27;;;;;;;0.20;92.68;101036.48;1795042;80;21135;-36
2021/01/06 06:40:23;;;;;;;69.50;25.68;;;;;;;0.22;92.72;101039.94;1795051;80;21376;-38
2021/01/06 06:43:01;;;;;;;80.62;26.95;;;;;;;0.24;92.72;101039.97;1793097;80;21091;-36
2021/01/06 06:45:42;;;;;;;69.37;26.42;;;;;;;0.25;92.78;101042.59;1780920;80;21022;-38
2021/01/06 06:48:25;;;;;;;72.87;27.37;;;;;;;0.27;92.80;101042.23;1748389;80;21040;-36
2021/01/06 06:51:01;;;;;;;72.45;26.48;;;;;;;0.32;92.78;101049.15;1780877;80;20992;-35
2021/01/06 06:54:00;;;;;;;69.17;24.55;;;;;;;0.32;92.79;101050.42;1780787;80;21217;-34
2021/01/06 06:56:54;;;;;;;82.75;27.48;;;;;;;0.35;92.78;101045.43;1780732;80;21032;-35
2021/01/06 06:59:49;;;;;;;76.70;26.62;;;;;;;0.36;92.76;101053.52;1780713;80;20988;-36
2021/01/06 07:02:17;;;;;;;79.75;25.12;;;;;;;0.39;92.73;101051.11;1780720;80;20973;-37
2021/01/06 07:04:48;;;;;;;73.67;25.52;;;;;;;0.39;92.75;101054.93;1780847;80;21032;-39
2021/01/06 07:07:41;;;;;;;77.60;28.70;;;;;;;0.40;92.78;101056.66;1780855;80;21211;-38
2021/01/06 07:10:22;;;;;;;80.30;29.07;;;;;;;0.43;92.77;101056.76;1780765;80;20897;-37
2021/01/06 07:12:55;;;;;;;71.67;27.40;;;;;;;0.49;92.70;101053.52;1780840;80;21009;-37
2021/01/06 07:15:49;;;;;;;72.10;26.65;;;;;;;0.54;92.75;101048.19;1780805;80;20992;-36
2021/01/06 08:29:24;;;;;;;59.00;23.50;;;;;;;1.39;92.18;101070.30;1843046;77;22050;-37
2021/01/06 08:32:03;;;;;;;59.10;23.85;;;;;;;1.45;92.01;101068.34;1812586;79;21103;-35
2021/01/06 08:34:38;;;;;;;59.35;23.10;;;;;;;1.50;92.02;101065.08;1810433;79;21360;-34
2021/01/06 08:37:11;;;;;;;49.75;21.02;;;;;;;1.57;92.05;101059.35;1810386;79;20993;-35
2021/01/06 08:39:54;;;;;;;55.20;23.15;;;;;;;1.67;91.92;101049.39;1810376;79;21001;-35
2021/01/06 08:42:26;;;;;;;48.60;20.62;;;;;;;1.66;91.97;101045.98;1810448;79;20923;-34
2021/01/06 08:45:01;;;;;;;50.65;20.77;;;;;;;1.70;92.02;101055.45;1810468;79;21554;-34
2021/01/06 08:47:35;;;;;;;46.87;20.43;;;;;;;1.75;91.99;101054.71;1810633;79;21195;-38
2021/01/06 08:50:34;;;;;;;49.33;20.95;;;;;;;1.81;91.98;101054.88;1810384;79;21630;-35
2021/01/06 08:53:04;;;;;;;59.50;21.23;;;;;;;1.87;91.92;101055.03;1810294;79;20954;-35
2021/01/06 08:55:42;;;;;;;44.42;19.00;;;;;;;1.86;91.81;101055.45;1810204;79;21020;-34
2021/01/06 08:58:12;;;;;;;50.33;20.92;;;;;;;1.88;91.72;101068.25;1810355;79;20985;-36
2021/01/06 09:00:52;;;;;;;52.85;20.23;;;;;;;1.91;91.66;101061.97;1810492;79;22081;-35
2021/01/06 09:03:54;;;;;;;45.12;20.40;;;;;;;1.90;91.62;101060.25;1810225;79;20997;-37
2021/01/06 09:06:23;;;;;;;56.20;21.93;;;;;;;1.94;91.66;101055.67;1810367;79;21524;-36
2021/01/06 09:09:06;;;;;;;54.38;23.27;;;;;;;1.96;91.44;101056.97;1810312;78;20926;-36
2021/01/06 09:11:45;;;;;;;63.50;23.83;;;;;;;2.00;91.41;101054.94;1784974;79;20906;-37
2021/01/06 09:14:31;;;;;;;63.58;23.07;;;;;;;2.02;91.39;101046.91;1810377;79;21194;-35
2021/01/06 09:17:07;;;;;;;58.17;21.55;;;;;;;2.04;91.28;101050.39;1808936;79;21014;-36
2021/01/06 09:19:53;;;;;;;53.00;20.25;;;;;;;2.07;91.18;101051.75;1809461;79;20911;-35
2021/01/06 09:22:21;;;;;;;47.25;20.57;;;;;;;2.06;90.99;101052.58;1809689;79;20942;-37
2021/01/06 09:24:52;;;;;;;51.90;20.45;;;;;;;2.07;91.07;101055.58;1810499;79;21515;-36
2021/01/06 09:27:44;;;;;;;54.60;20.77;;;;;;;2.07;91.06;101051.75;1809256;79;21528;-35
2021/01/06 09:30:30;;;;;;;52.80;20.92;;;;;;;2.09;91.04;101053.05;1795503;80;21010;-35
2021/01/06 09:33:14;;;;;;;48.08;21.75;;;;;;;2.15;90.97;101054.51;1890111;76;22656;-36
2021/01/06 10:22:34;;;;;;;49.53;21.12;;;;;;;2.90;90.75;101035.41;1792140;80;22726;-35
2021/01/06 10:25:30;;;;;;;49.20;21.82;;;;;;;2.99;90.61;101043.70;1763771;81;21075;-36
2021/01/06 10:28:23;;;;;;;38.70;19.92;;;;;;;3.04;90.65;101047.22;1763782;81;21279;-35
2021/01/06 10:31:13;;;;;;;47.38;20.75;;;;;;;3.09;90.61;101040.51;1763732;81;21031;-36
2021/01/06 10:34:09;;;;;;;47.95;21.33;;;;;;;3.18;90.64;101042.84;1763724;81;20922;-36
2021/01/06 10:36:55;;;;;;;40.90;19.00;;;;;;;3.26;90.69;101045.12;1763865;81;21039;-36
2021/01/06 10:39:47;;;;;;;47.37;20.30;;;;;;;3.33;90.68;101044.85;1764072;81;20941;-36
2021/01/06 10:42:27;;;;;;;45.25;19.23;;;;;;;3.39;90.56;101036.86;1763764;81;21207;-34
2021/01/06 10:45:06;;;;;;;50.85;20.40;;;;;;;3.48;90.55;101045.58;1763679;81;21076;-34
2021/01/06 10:47:44;;;;;;;47.13;20.85;;;;;;;3.56;90.54;101044.03;1763711;80;20969;-36
2021/01/06 10:50:31;;;;;;;41.35;20.05;;;;;;;3.64;90.45;101042.47;1763649;81;21068;-36
2021/01/06 10:53:24;;;;;;;37.38;14.63;;;;;;;3.72;90.37;101037.11;1763827;81;21024;-35
2021/01/06 10:56:03;;;;;;;43.60;19.90;;;;;;;3.86;90.30;101031.36;1763691;81;22640;-36
2021/01/06 10:59:06;;;;;;;38.17;19.37;;;;;;;3.95;90.19;101040.52;1763662;81;20948;-35
2021/01/06 11:02:16;;;;;;;33.45;17.37;;;;;;;4.02;90.15;101035.06;1763654;81;21013;-37
2021/01/06 11:05:08;;;;;;;33.67;17.35;;;;;;;4.09;89.78;101032.20;1763456;80;21554;-35
2021/01/06 11:07:51;;;;;;;39.18;18.55;;;;;;;4.12;89.58;101033.52;1763713;81;20949;-34
2021/01/06 11:10:49;;;;;;;38.55;19.50;;;;;;;4.12;89.58;101033.52;1763716;81;21257;-35
2021/01/06 11:13:48;;;;;;;38.28;18.87;;;;;;;4.14;89.57;101032.73;1763638;81;21024;-37
2021/01/06 11:16:21;;;;;;;37.25;19.23;;;;;;;4.18;89.38;101032.38;1759401;81;20937;-34
2021/01/06 11:18:52;;;;;;;37.15;19.25;;;;;;;4.20;89.27;101031.98;1763613;81;20920;-34
2021/01/06 11:21:38;;;;;;;38.42;17.82;;;;;;;4.19;89.24;101030.25;1763913;81;21399;-34
2021/01/06 11:23:59;;;;;;;38.53;17.02;;;;;;;4.22;89.10;101034.55;1762932;80;21310;-36
2021/01/06 11:26:41;;;;;;;49.85;21.77;;;;;;;4.22;89.00;101030.30;1764133;80;20936;-36
2021/01/06 11:29:22;;;;;;;43.50;19.73;;;;;;;4.21;89.02;101037.55;1764180;81;20940;-36
2021/01/06 11:32:05;;;;;;;34.75;18.37;;;;;;;4.24;89.00;101041.44;1764030;80;20896;-36
2021/01/06 11:34:37;;;;;;;32.67;17.42;;;;;;;4.26;88.90;101040.17;1763692;81;21035;-39
2021/01/06 11:37:31;;;;;;;37.67;19.73;;;;;;;4.26;88.88;101039.77;1763662;81;21419;-36
2021/01/06 11:39:59;;;;;;;34.23;18.25;;;;;;;4.27;88.87;101044.05;1763501;80;21079;-34
2021/01/06 11:42:50;;;;;;;30.20;17.35;;;;;;;4.26;88.82;101040.17;1763713;81;20992;-34
2021/01/06 11:45:22;;;;;;;44.25;16.73;;;;;;;4.26;88.87;101037.61;1763702;81;21450;-36
2021/01/06 11:47:56;;;;;;;39.08;18.37;;;;;;;4.28;88.83;101047.46;1750954;81;21478;-35
2021/01/06 11:50:38;;;;;;;30.82;16.75;;;;;;;4.27;88.82;101045.34;1763786;81;22229;-37
2021/01/06 11:53:26;;;;;;;36.17;17.15;;;;;;;4.29;88.85;101042.78;1763583;80;21019;-36
2021/01/06 11:56:23;;;;;;;37.33;18.77;;;;;;;4.26;88.86;101042.33;1763615;81;21494;-37
2021/01/06 11:59:30;;;;;;;33.60;17.62;;;;;;;4.28;88.90;101043.62;1763697;81;20904;-37
2021/01/06 12:02:03;;;;;;;34.18;18.20;;;;;;;4.30;88.97;101049.66;1763790;80;21036;-36
2021/01/06 12:05:05;;;;;;;38.50;17.75;;;;;;;4.29;89.06;101051.75;1758029;81;21369;-36
2021/01/06 12:07:48;;;;;;;34.98;19.30;;;;;;;4.28;89.12;101045.78;1763600;81;21592;-37
2021/01/06 12:10:51;;;;;;;38.58;19.50;;;;;;;4.29;89.23;101046.22;1763612;80;20932;-37
2021/01/06 12:13:30;;;;;;;33.70;18.52;;;;;;;4.28;89.30;101048.34;1763690;80;21052;-35
2021/01/06 12:16:13;;;;;;;44.23;19.52;;;;;;;4.27;89.38;101053.42;1763547;81;20889;-37
2021/01/06 12:18:57;;;;;;;33.53;17.62;;;;;;;4.26;89.53;101052.58;1763672;81;21390;-35
2021/01/06 12:21:48;;;;;;;32.98;18.20;;;;;;;4.25;89.60;101052.14;1763144;81;21004;-36
2021/01/06 12:24:32;;;;;;;40.73;18.70;;;;;;;4.25;89.73;101054.70;1759842;81;21455;-36
2021/01/06 12:27:29;;;;;;;55.17;18.60;;;;;;;4.24;89.99;101058.10;1763041;81;20917;-36
2021/01/06 12:30:12;;;;;;;38.17;17.75;;;;;;;4.24;89.99;101058.10;1763018;81;21455;-37
2021/01/06 12:32:59;;;;;;;29.90;17.23;;;;;;;4.24;90.15;101058.10;1763078;81;21105;-37
2021/01/06 12:35:42;;;;;;;34.40;16.10;;;;;;;4.25;90.27;101057.27;1762675;80;20961;-36
2021/01/06 12:38:21;;;;;;;33.53;16.57;;;;;;;4.25;90.35;101058.55;1763078;81;20965;-36
2021/01/06 12:41:06;;;;;;;33.30;18.90;;;;;;;4.24;90.52;101058.50;1763011;81;20941;-36
2021/01/06 12:44:01;;;;;;;39.60;21.87;;;;;;;4.25;90.65;101066.23;1763327;81;21095;-36
2021/01/06 12:46:50;;;;;;;24.47;15.03;;;;;;;4.25;90.71;101068.80;1763077;81;21192;-36
2021/01/06 12:49:40;;;;;;;25.30;14.83;;;;;;;4.25;90.82;101063.67;1762725;81;20949;-36
2021/01/06 12:52:30;;;;;;;30.72;14.45;;;;;;;4.21;90.91;101059.33;1763065;81;20989;-36
2021/01/06 12:55:16;;;;;;;24.27;13.25;;;;;;;4.24;91.12;101068.35;1762994;81;21459;-36
2021/01/06 12:57:56;;;;;;;33.60;15.23;;;;;;;4.24;91.12;101068.35;1763394;81;20926;-37
2021/01/06 13:00:40;;;;;;;23.15;13.98;;;;;;;4.25;91.04;101061.52;1763105;81;21210;-36
2021/01/06 13:03:38;;;;;;;22.73;12.78;;;;;;;4.24;91.09;101062.34;1763062;81;20905;-36
2021/01/06 13:06:17;;;;;;;28.20;13.40;;;;;;;4.25;91.12;101055.98;1763036;81;20913;-37
2021/01/06 13:08:53;;;;;;;20.27;13.10;;;;;;;4.30;91.07;101062.05;1763071;81;20996;-35
2021/01/06 13:11:38;;;;;;;24.77;12.78;;;;;;;4.30;91.07;101062.05;1763069;81;20962;-37
2021/01/06 13:14:37;;;;;;;18.03;11.23;;;;;;;4.31;91.04;101059.92;1763296;81;21370;-37
2021/01/06 13:17:20;;;;;;;17.48;10.32;;;;;;;4.32;90.99;101067.21;1762903;81;21053;-36
2021/01/06 13:20:09;;;;;;;28.30;11.53;;;;;;;4.35;90.89;101072.79;1750240;80;21447;-36
2021/01/06 13:22:49;;;;;;;16.85;10.75;;;;;;;4.34;90.79;101071.06;1757508;80;20957;-35
2021/01/06 13:25:30;;;;;;;17.98;11.28;;;;;;;4.33;90.77;101075.34;1755183;81;20962;-36
2021/01/06 13:28:12;;;;;;;23.02;12.03;;;;;;;4.34;90.73;101078.75;1755188;81;21361;-37
2021/01/06 13:30:47;;;;;;;17.15;12.03;;;;;;;4.36;90.62;101079.64;1755113;80;20953;-37
2021/01/06 13:33:39;;;;;;;13.10;9.10;;;;;;;4.37;90.58;101082.65;1755352;81;21021;-35
2021/01/06 13:36:15;;;;;;;15.10;9.43;;;;;;;4.38;90.54;101086.94;1755109;80;21009;-35
2021/01/06 13:39:11;;;;;;;16.93;9.98;;;;;;;4.40;90.43;101087.83;1752325;81;21004;-36
2021/01/06 13:41:46;;;;;;;14.63;9.63;;;;;;;4.43;90.37;101087.47;1753842;81;21267;-37
2021/01/06 13:44:34;;;;;;;21.60;10.55;;;;;;;4.45;90.33;101086.23;1755318;81;20961;-36
2021/01/06 13:47:11;;;;;;;18.12;9.73;;;;;;;4.45;90.20;101097.77;1755123;81;20984;-36
2021/01/06 13:49:56;;;;;;;21.17;8.88;;;;;;;4.41;90.20;101102.38;1755226;81;20933;-37
2021/01/06 13:52:30;;;;;;;12.40;8.35;;;;;;;4.41;90.20;101102.38;1755414;81;20981;-36
2021/01/06 13:55:03;;;;;;;12.68;8.60;;;;;;;4.38;89.93;101101.03;1755218;81;21196;-38
2021/01/06 13:57:55;;;;;;;14.45;8.75;;;;;;;4.34;89.94;101103.11;1755139;81;21048;-37
2021/01/06 14:00:29;;;;;;;11.97;8.48;;;;;;;4.30;90.11;101102.20;1755130;81;20961;-37
2021/01/06 14:03:32;;;;;;;15.65;10.18;;;;;;;4.30;89.96;101106.05;1754463;81;21087;-36
2021/01/06 14:06:23;;;;;;;18.65;10.70;;;;;;;4.30;89.96;101106.05;1755239;81;20917;-38
2021/01/06 14:09:18;;;;;;;14.65;9.78;;;;;;;4.30;90.02;101115.02;1755359;81;22236;-36
2021/01/06 14:12:29;;;;;;;10.65;8.70;;;;;;;4.28;89.99;101112.83;1755255;81;21067;-36